ASN logo
ASN Wikibase Occurrence # 221457
Last updated: 20 September 2019
This information is added by users of ASN. Neither ASN nor the Flight Safety Foundation are responsible for the completeness or correctness of this information. If you feel this information is incomplete or incorrect, you can submit corrected information.

Date:27-JAN-2019
Time:c. 22:00 UTC
Type:Silhouette image of generic A319 model; specific model in this crash may look slightly different
Airbus A319-132 (WL)
Owner/operator:Avianca
Registration: N694AV
C/n / msn: 6068
Fatalities:Fatalities: 0 / Occupants:
Other fatalities:0
Aircraft damage: Substantial
Location:near Bogotá -   Colombia
Phase: Approach
Nature:Domestic Scheduled Passenger
Departure airport:Cali-Alfonso Bonilla Aragón Airport (CLO/SKCL)
Destination airport:Bogotá-Eldorado Airport (BOG/SKBO)
Narrative:
Avianca flight AV8464 crossed a strong hail storm on approach to Bogotá. The aircraft suffered damage to the windshield and radar dome.

Weather about the time of the approach (2200Z):
SKBO 272100Z 25012KT 9999 SCT020TCU 20/11 A3023 RMK TCU/NE
SKBO 272200Z 28011KT 9999 SCT020TCU 19/11 A3024 RMK TCU/SE
SKBO 272300Z 25008KT 9999 FEW020 17/11 A3026

Sources:

http://www.webinfomil.com/2019/02/con-la-nariz-destruida-quedo-un-avion.html
https://www.flightradar24.com/data/aircraft/n694av#1f50b843


Images:

Photo of N694AV courtesy AirHistory.net


Miami - International (KMIA / MIA)
8 March 2016; (c) Gerard Helmer



Revision history:

Date/timeContributorUpdates
02-Feb-2019 19:52 melcochita61 Added
02-Feb-2019 19:55 harro Updated [Time, Aircraft type, Cn, Operator, Location, Departure airport, Destination airport, Source, Narrative]
10-Feb-2019 10:37 Anon. Updated [Photo]

Corrections or additions? ... Edit this accident description